Map

Track Data

SID SEASON NUMBER BASIN SUBBASIN NAME ISO_TIME NATURE LAT LON WMO_WIND WMO_PRES WMO_AGENCY TRACK_TYPE DIST2LAND LANDFALL IFLAG USA_AGENCY USA_ATCF_ID USA_LAT USA_LON USA_RECORD USA_STATUS USA_WIND USA_PRES USA_SSHS USA_R34_NE USA_R34_SE USA_R34_SW USA_R34_NW USA_R50_NE USA_R50_SE USA_R50_SW USA_R50_NW USA_R64_NE USA_R64_SE USA_R64_SW USA_R64_NW USA_POCI USA_ROCI USA_RMW USA_EYE TOKYO_LAT TOKYO_LON TOKYO_GRADE TOKYO_WIND TOKYO_PRES TOKYO_R50_DIR TOKYO_R50_LONG TOKYO_R50_SHORT TOKYO_R30_DIR TOKYO_R30_LONG TOKYO_R30_SHORT TOKYO_LAND CMA_LAT CMA_LON CMA_CAT CMA_WIND CMA_PRES HKO_LAT HKO_LON HKO_CAT HKO_WIND HKO_PRES NEWDELHI_LAT NEWDELHI_LON NEWDELHI_GRADE NEWDELHI_WIND NEWDELHI_PRES NEWDELHI_CI NEWDELHI_DP NEWDELHI_POCI REUNION_LAT REUNION_LON REUNION_TYPE REUNION_WIND REUNION_PRES REUNION_TNUM REUNION_CI REUNION_RMW REUNION_R34_NE REUNION_R34_SE REUNION_R34_SW REUNION_R34_NW REUNION_R50_NE REUNION_R50_SE REUNION_R50_SW REUNION_R50_NW REUNION_R64_NE REUNION_R64_SE REUNION_R64_SW REUNION_R64_NW BOM_LAT BOM_LON BOM_TYPE BOM_WIND BOM_PRES BOM_TNUM BOM_CI BOM_RMW BOM_R34_NE BOM_R34_SE BOM_R34_SW BOM_R34_NW BOM_R50_NE BOM_R50_SE BOM_R50_SW BOM_R50_NW BOM_R64_NE BOM_R64_SE BOM_R64_SW BOM_R64_NW BOM_ROCI BOM_POCI BOM_EYE BOM_POS_METHOD BOM_PRES_METHOD NADI_LAT NADI_LON NADI_CAT NADI_WIND NADI_PRES WELLINGTON_LAT WELLINGTON_LON WELLINGTON_WIND WELLINGTON_PRES DS824_LAT DS824_LON DS824_STAGE DS824_WIND DS824_PRES TD9636_LAT TD9636_LON TD9636_STAGE TD9636_WIND TD9636_PRES TD9635_LAT TD9635_LON TD9635_WIND TD9635_PRES TD9635_ROCI NEUMANN_LAT NEUMANN_LON NEUMANN_CLASS NEUMANN_WIND NEUMANN_PRES MLC_LAT MLC_LON MLC_CLASS MLC_WIND MLC_PRES USA_GUST BOM_GUST BOM_GUST_PER REUNION_GUST REUNION_GUST_PER USA_SEAHGT USA_SEARAD_NE USA_SEARAD_SE USA_SEARAD_SW USA_SEARAD_NW STORM_SPEED STORM_DIR
1996090N04150 1996 27 WP MM ANN 1996-03-29 18:00:00 NR 4.00000 150.100 main 746 746 O_____________ jtwc_wp WP021996 4.00000 150.100 15 -1 3 341
1996090N04150 1996 27 WP MM ANN 1996-03-29 21:00:00 NR 4.15000 150.050 main 767 762 P_____________ WP021996 4.15000 150.050 17 -1 3 343
1996090N04150 1996 27 WP MM ANN 1996-03-30 00:00:00 NR 4.30000 150.000 main 773 773 O_____________ jtwc_wp WP021996 4.30000 150.000 20 -1 3 343
1996090N04150 1996 27 WP MM ANN 1996-03-30 03:00:00 NR 4.45000 149.950 main 794 783 P_____________ WP021996 4.45000 149.950 20 -1 3 343
1996090N04150 1996 27 WP MM ANN 1996-03-30 06:00:00 NR 4.60000 149.900 main 800 800 O_____________ jtwc_wp WP021996 4.60000 149.900 20 -1 3 343
1996090N04150 1996 27 WP MM ANN 1996-03-30 09:00:00 NR 4.73500 149.857 main 811 811 P_____________ WP021996 4.73500 149.857 20 -1 3 343
1996090N04150 1996 27 WP MM ANN 1996-03-30 12:00:00 NR 4.90000 149.800 main 828 828 O_____________ jtwc_wp WP021996 4.90000 149.800 20 -1 4 341
1996090N04150 1996 27 WP MM ANN 1996-03-30 15:00:00 NR 5.12749 149.722 main 846 846 P_____________ WP021996 5.12749 149.722 22 -1 5 338
1996090N04150 1996 27 WP MM ANN 1996-03-30 18:00:00 NR 5.40000 149.600 main 875 875 O_____________ jtwc_wp WP021996 5.40000 149.600 25 -1 6 333
1996090N04150 1996 27 WP MM ANN 1996-03-30 21:00:00 NR 5.69249 149.430 main 901 901 P_____________ WP021996 5.69249 149.430 25 -1 7 326
1996090N04150 1996 27 WP MM ANN 1996-03-31 00:00:00 NR 6.00000 149.200 main 929 929 O_____________ jtwc_wp WP021996 6.00000 149.200 25 -1 8 322
1996090N04150 1996 27 WP MM ANN 1996-03-31 03:00:00 NR 6.31494 148.945 main 955 955 P_____________ WP021996 6.31494 148.945 25 -1 9 315
1996090N04150 1996 27 WP MM ANN 1996-03-31 06:00:00 NR 6.60000 148.600 main 984 982 O_____________ jtwc_wp WP021996 6.60000 148.600 25 -1 10 301
1996090N04150 1996 27 WP MM ANN 1996-03-31 09:00:00 NR 6.80753 148.130 main 1000 999 P_____________ WP021996 6.80753 148.130 25 -1 11 292
1996090N04150 1996 27 WP MM ANN 1996-03-31 12:00:00 NR 7.00000 147.600 main 1019 1019 O_____________ jtwc_wp WP021996 7.00000 147.600 25 -1 11 293
1996090N04150 1996 27 WP MM ANN 1996-03-31 15:00:00 NR 7.24247 147.092 main 1042 1042 P_____________ WP021996 7.24247 147.092 25 -1 11 297
1996090N04150 1996 27 WP MM ANN 1996-03-31 18:00:00 NR 7.50000 146.600 main 1075 1075 O_____________ jtwc_wp WP021996 7.50000 146.600 25 -1 11 298
1996090N04150 1996 27 WP MM ANN 1996-03-31 21:00:00 NR 7.76499 146.120 main 1110 1110 P_____________ WP021996 7.76499 146.120 25 -1 10 299
1996090N04150 1996 27 WP MM ANN 1996-04-01 00:00:00 NR 8.00000 145.700 main 1136 1136 O_____________ jtwc_wp WP021996 8.00000 145.700 25 -1 8 298
1996090N04150 1996 27 WP MM ANN 1996-04-01 03:00:00 NR 8.15742 145.377 main 1161 1161 P_____________ WP021996 8.15742 145.377 25 -1 7 297
1996090N04150 1996 27 WP MM ANN 1996-04-01 06:00:00 NR 8.30000 145.100 main 1177 1177 O_____________ jtwc_wp WP021996 8.30000 145.100 25 -1 7 301
1996090N04150 1996 27 WP MM ANN 1996-04-01 09:00:00 NR 8.49996 144.808 main 1204 1204 P_____________ WP021996 8.49996 144.808 27 -1 7 319
1996090N04150 1996 27 WP MM ANN 1996-04-01 12:00:00 TS 8.80000 144.667 1004 tokyo main 1239 1239 OOO___________ jtwc_wp WP021996 8.70000 144.500 30 -1 9.00000 145.000 2 1004 0 0 0 9.00000 145.000 1 23 1004 4 340
1996090N04150 1996 27 WP MM ANN 1996-04-01 15:00:00 TS 8.91106 144.650 main 1250 1250 PPP___________ WP021996 8.86179 144.160 30 -1 8.87504 144.975 2 1004 0 0 9.00497 145.053 1 23 1004 2 13
1996090N04150 1996 27 WP MM ANN 1996-04-01 18:00:00 TS 9.00000 144.700 1004 tokyo main 1261 1261 OOO___________ jtwc_wp WP021996 9.00000 143.800 30 -1 9.00000 145.000 2 1004 0 0 0 9.00000 145.000 1 23 1004 3 18
1996090N04150 1996 27 WP MM ANN 1996-04-01 21:00:00 TS 9.22274 144.759 main 1281 1281 _PP___________ WP021996 -1 9.49989 145.075 2 1004 0 0 8.98505 144.780 1 26 1002 5 7
1996090N04150 1996 27 WP MM ANN 1996-04-02 00:00:00 TS 9.50000 144.750 1004 tokyo main 1315 1315 _OO___________ WP021996 -1 10.0000 145.000 2 1004 0 0 0 9.00000 144.500 1 29 1000 5 315
1996090N04150 1996 27 WP MM ANN 1996-04-02 03:00:00 TS 9.58392 144.396 main 1333 1333 _PP___________ WP021996 -1 10.0754 144.500 2 1003 0 0 9.09248 144.293 1 29 1000 7 278
1996090N04150 1996 27 WP MM ANN 1996-04-02 06:00:00 TS 9.60000 144.050 1002 tokyo main 1339 1339 _OO___________ WP021996 -1 10.0000 144.000 2 1002 0 0 0 9.20000 144.100 1 29 1000 4 276
1996090N04150 1996 27 WP MM ANN 1996-04-02 09:00:00 TS 9.62863 143.954 main 1342 1342 _PP___________ WP021996 -1 9.99978 144.000 2 1002 0 0 9.25747 143.907 1 29 1000 2 284
1996090N04150 1996 27 WP MM ANN 1996-04-02 12:00:00 TS 9.65000 143.850 1002 tokyo main 1355 1344 _OO___________ WP021996 -1 10.0000 144.000 2 1002 0 0 0 9.30000 143.700 1 29 1000 4 274
1996090N04150 1996 27 WP MM ANN 1996-04-02 15:00:00 TS 9.65637 143.505 main 1366 1366 _PP___________ WP021996 -1 9.96279 143.537 2 1002 0 0 9.34996 143.472 1 29 1000 7 274
1996090N04150 1996 27 WP MM ANN 1996-04-02 18:00:00 TS 9.70000 143.100 1002 tokyo main 1377 1373 _OO___________ WP021996 -1 10.0000 143.000 2 1002 0 0 0 9.40000 143.200 1 29 1000 7 284
1996090N04150 1996 27 WP MM ANN 1996-04-02 21:00:00 TS 9.82364 142.804 main 1375 1375 _PP___________ WP021996 -1 10.2047 142.757 2 1002 0 0 9.44254 142.850 1 29 1000 7 297
1996090N04150 1996 27 WP MM ANN 1996-04-03 00:00:00 TS 10.0000 142.500 1002 tokyo main 1384 1380 _OO___________ WP021996 -1 10.5000 142.500 2 1002 0 0 0 9.50000 142.500 1 29 1000 8 299
1996090N04150 1996 27 WP MM ANN 1996-04-03 03:00:00 TS 10.2114 142.089 main 1391 1387 _PP___________ WP021996 -1 10.8378 141.935 2 1002 0 0 9.58493 142.242 1 26 1002 9 297
1996090N04150 1996 27 WP MM ANN 1996-04-03 06:00:00 TS 10.4000 141.700 1002 tokyo main 1399 1396 _OO___________ WP021996 -1 11.1000 141.400 2 1002 0 0 0 9.70000 142.000 1 23 1004 7 296
1996090N04150 1996 27 WP MM ANN 1996-04-03 09:00:00 TS 10.5124 141.464 main 1404 1398 _PP___________ WP021996 -1 11.1673 141.197 2 1002 0 0 9.85742 141.730 1 23 1004 5 289
1996090N04150 1996 27 WP MM ANN 1996-04-03 12:00:00 TS 10.5500 141.250 1002 tokyo main 1409 1396 _OO___________ WP021996 -1 11.1000 141.100 2 1002 0 0 0 10.0000 141.400 1 23 1004 5 276
1996090N04150 1996 27 WP MM ANN 1996-04-03 15:00:00 TS 10.5638 140.944 main 1392 1368 _PP___________ WP021996 -1 11.0099 140.930 2 1002 0 0 10.1176 140.958 1 23 1004 6 261
1996090N04150 1996 27 WP MM ANN 1996-04-03 18:00:00 TS 10.4500 140.600 1002 tokyo main 1368 1325 _OO___________ WP021996 -1 10.8000 140.700 2 1002 0 0 0 10.1000 140.500 1 23 1004 8 238
1996090N04150 1996 27 WP MM ANN 1996-04-03 21:00:00 TS 10.1487 140.269 main 1314 1267 _PP___________ WP021996 -1 10.4524 140.395 2 1003 0 0 9.84489 140.142 1 23 1004 10 225
1996090N04150 1996 27 WP MM ANN 1996-04-04 00:00:00 TS 9.75000 139.900 1004 tokyo main 1267 1214 _OO___________ WP021996 -1 10.0000 140.000 2 1004 0 0 0 9.50000 139.800 1 23 1004 11 222
1996090N04150 1996 27 WP MM ANN 1996-04-04 03:00:00 TS 9.36330 139.548 main 1210 1150 _PP___________ WP021996 -1 9.47708 139.597 2 1004 0 0 9.24952 139.498 1 26 1003 12 230
1996090N04150 1996 27 WP MM ANN 1996-04-04 06:00:00 TS 9.00000 139.000 1004 tokyo main 1150 1089 _OO___________ WP021996 -1 9.00000 139.000 2 1004 0 0 0 9.00000 139.000 1 29 1002 16 245
1996090N04150 1996 27 WP MM ANN 1996-04-04 09:00:00 TS 8.66553 138.045 main 1086 1044 _PP___________ WP021996 -1 8.67550 138.037 2 1004 0 0 8.65557 138.052 1 29 1002 21 254
1996090N04150 1996 27 WP MM ANN 1996-04-04 12:00:00 TS 8.45000 137.000 1004 tokyo main 1042 1021 _OO___________ WP021996 -1 8.50000 137.000 2 1004 0 0 0 8.40000 137.000 1 29 1002 19 261
1996090N04150 1996 27 WP MM ANN 1996-04-04 15:00:00 TS 8.38095 136.198 main 1021 985 _PP___________ WP021996 -1 8.40970 136.198 2 1004 0 0 8.35221 136.198 1 29 1002 16 276
1996090N04150 1996 27 WP MM ANN 1996-04-04 18:00:00 TS 8.62222 135.411 1004 tokyo main 974 912 OOO___________ jtwc_wp WP021996 9.60000 134.700 25 -1 8.50000 135.500 2 1004 0 0 0 8.50000 135.500 1 29 1002 16 292
1996090N04150 1996 27 WP MM ANN 1996-04-04 21:00:00 TS 8.96671 134.742 main 903 857 PPP___________ WP021996 9.60964 134.243 25 -1 8.80464 134.865 2 1004 0 0 8.81214 134.865 1 29 1002 15 304
1996090N04150 1996 27 WP MM ANN 1996-04-05 00:00:00 TS 9.42500 134.192 1004 tokyo main 857 801 OOOO__________ jtwc_wp WP021996 9.60000 133.800 25 -1 9.20000 134.200 2 1004 0 0 0 9.20000 134.200 1 29 1002 10.7000 135.300 TD 25 1004 14 302
1996090N04150 1996 27 WP MM ANN 1996-04-05 03:00:00 TS 9.70734 133.537 main 791 745 PPPP__________ WP021996 9.54990 133.400 27 -1 9.53782 133.328 2 1004 0 0 9.53782 133.328 1 29 1002 10.7003 134.650 TD 27 1002 13 291
1996090N04150 1996 27 WP MM ANN 1996-04-05 06:00:00 TS 9.90000 132.933 1004 tokyo main 735 693 OOOO__________ jtwc_wp WP021996 9.50000 133.000 30 -1 9.80000 132.500 2 1004 0 0 0 9.80000 132.500 1 29 1002 10.7000 134.000 TD 30 1000 11 286
1996090N04150 1996 27 WP MM ANN 1996-04-05 09:00:00 TS 10.0147 132.456 main 693 640 PPPP__________ WP021996 9.49237 132.580 32 -1 9.92963 131.947 2 1004 0 0 9.93713 131.947 1 29 1002 10.6999 133.350 TD 30 1000 10 279
1996090N04150 1996 27 WP MM ANN 1996-04-05 12:00:00 TS 10.0500 131.950 1004 tokyo main 642 578 OOOO__________ jtwc_wp WP021996 9.50000 132.100 35 0 10.0000 131.500 2 1004 0 0 0 10.0000 131.500 1 29 1002 10.7000 132.700 TD 30 1000 11 274
1996090N04150 1996 27 WP MM ANN 1996-04-05 15:00:00 TS 10.0912 131.387 main 578 525 PPPP__________ WP021996 9.49250 131.522 35 0 10.1150 130.985 2 1002 0 0 10.0575 130.992 1 31 1000 10.6999 132.050 TD 32 999 11 274
1996090N04150 1996 27 WP MM ANN 1996-04-05 18:00:00 TS 10.1250 130.825 35 1000 tokyo main 514 460 OOOO__________ jtwc_wp WP021996 9.50000 130.900 35 0 10.2000 130.500 3 35 1000 0 9 60 60 0 10.1000 130.500 2 34 998 10.7000 131.400 TS 35 998 11 273
1996090N04150 1996 27 WP MM ANN 1996-04-05 21:00:00 TS 10.1461 130.298 main 460 410 PPPP__________ WP021996 9.54247 130.285 35 0 10.2074 130.085 3 35 1000 0 9 60 60 10.1423 130.072 2 34 998 10.6924 130.750 TS 35 998 10 273
1996090N04150 1996 27 WP MM ANN 1996-04-06 00:00:00 TS 10.1750 129.775 35 1000 tokyo main 410 358 OOOO__________ jtwc_wp WP021996 9.60000 129.700 35 0 10.2000 129.700 3 35 1000 0 9 60 60 0 10.2000 129.600 2 34 998 10.7000 130.100 TS 35 998 10 274
1996090N04150 1996 27 WP MM ANN 1996-04-06 03:00:00 TS 10.2261 129.236 main 347 300 PPPP__________ WP021996 9.64236 129.185 35 0 10.2272 129.360 3 35 1000 0 9 60 60 10.2927 128.958 2 34 998 10.7424 129.443 TS 35 998 11 277
1996090N04150 1996 27 WP MM ANN 1996-04-06 06:00:00 TS 10.3000 128.675 35 1000 tokyo main 300 247 OOOO__________ jtwc_wp WP021996 9.70000 128.700 35 0 10.3000 128.900 3 35 1000 0 9 60 60 0 10.4000 128.300 2 34 998 10.8000 128.800 TS 35 998 12 279
1996090N04150 1996 27 WP MM ANN 1996-04-06 09:00:00 TS 10.4000 128.068 main 247 194 PPPP__________ WP021996 9.78493 128.200 35 0 10.4579 128.123 3 35 1000 0 9 60 60 10.4998 127.785 2 34 998 10.8575 128.163 TS 35 998 12 280
1996090N04150 1996 27 WP MM ANN 1996-04-06 12:00:00 TS 10.5000 127.475 35 1000 tokyo main 194 138 OOOO__________ jtwc_wp WP021996 9.90000 127.700 35 0 10.6000 127.300 3 35 1000 0 9 60 60 0 10.6000 127.300 2 34 998 10.9000 127.600 TS 35 998 11 278
1996090N04150 1996 27 WP MM ANN 1996-04-06 15:00:00 TS 10.5606 126.937 main 128 88 PPPP__________ WP021996 10.0274 127.200 37 0 10.6224 126.652 3 35 1000 0 9 60 60 10.7001 126.728 2 34 998 10.8923 127.170 TS 35 998 10 277
1996090N04150 1996 27 WP MM ANN 1996-04-06 18:00:00 TS 10.6250 126.475 35 1000 tokyo main 88 46 OOOO__________ jtwc_wp WP021996 10.2000 126.700 40 0 10.6000 126.200 3 35 1000 0 9 60 60 0 10.8000 126.200 2 34 998 10.9000 126.800 TS 35 998 8 280
1996090N04150 1996 27 WP MM ANN 1996-04-06 21:00:00 TS 10.7093 126.106 main 46 22 PPPP__________ WP021996 10.4275 126.178 40 0 10.5548 126.012 3 35 1000 0 9 60 60 10.8773 125.835 2 34 998 10.9774 126.400 TS 35 998 7 288
1996090N04150 1996 27 WP MM ANN 1996-04-07 00:00:00 TS 10.8500 125.775 35 1000 tokyo main 11 0 OOOO__________ jtwc_wp WP021996 10.7000 125.700 40 0 10.6000 125.900 3 35 1000 0 9 60 60 0 11.0000 125.500 2 34 998 11.1000 126.000 TS 35 998 8 299
1996090N04150 1996 27 WP MM ANN 1996-04-07 03:00:00 TS 11.0812 125.415 main 0 0 PPPP__________ WP021996 11.0074 125.327 40 0 10.8398 125.682 3 35 1000 0 9 60 60 11.2426 125.035 2 34 998 11.2349 125.615 TS 35 998 9 304
1996090N04150 1996 27 WP MM ANN 1996-04-07 06:00:00 TS 11.3500 125.025 35 1000 tokyo main 0 0 OOOO__________ jtwc_wp WP021996 11.3000 125.000 40 0 11.2000 125.300 3 35 1000 0 9 60 60 0 11.5000 124.600 2 34 998 11.4000 125.200 TS 35 998 10 302
1996090N04150 1996 27 WP MM ANN 1996-04-07 09:00:00 TS 11.6139 124.562 main 24 10 PPPP__________ WP021996 11.5300 124.635 40 0 11.6305 124.608 3 35 1000 0 9 60 60 11.6874 124.320 2 34 998 11.6076 124.685 TS 35 998 10 298
1996090N04150 1996 27 WP MM ANN 1996-04-07 12:00:00 TS 11.8250 124.125 35 1000 tokyo main 10 0 OOOO__________ jtwc_wp WP021996 11.7000 124.300 40 0 12.0000 123.900 3 35 1000 0 9 60 60 0 11.8000 124.100 2 34 998 11.8000 124.200 TS 35 998 8 293
1996090N04150 1996 27 WP MM ANN 1996-04-07 15:00:00 TS 11.9280 123.792 main 0 0 PPPP__________ WP021996 11.8075 124.027 37 0 12.1598 123.445 3 35 1000 0 9 60 60 11.8225 123.850 2 34 998 11.9224 123.847 TS 32 999 6 285
1996090N04150 1996 27 WP MM ANN 1996-04-07 18:00:00 TS 11.9750 123.550 35 1000 tokyo main 11 11 OOOO__________ jtwc_wp WP021996 11.9000 123.800 35 0 12.2000 123.200 3 35 1000 0 9 60 60 0 11.8000 123.600 2 34 998 12.0000 123.600 TD 30 1000 4 285
1996090N04150 1996 27 WP MM ANN 1996-04-07 21:00:00 TS 12.0362 123.374 main 15 0 PPPP__________ WP021996 12.0500 123.585 35 0 12.2299 123.162 3 1001 0 9 11.8000 123.313 2 31 999 12.0649 123.435 TD 30 1000 3 288
1996090N04150 1996 27 WP MM ANN 1996-04-08 00:00:00 TS 12.0733 123.247 1002 tokyo main 10 10 OOOO__________ jtwc_wp WP021996 12.2000 123.400 35 0 12.2000 123.200 2 1002 0 0 0 11.8000 123.100 1 29 1000 12.1000 123.300 TD 30 1000 2 279
1996090N04150 1996 27 WP MM ANN 1996-04-08 03:00:00 TS 12.0746 123.132 main 15 15 PPPP__________ WP021996 12.3075 123.242 32 -1 12.1000 123.100 2 1002 0 0 11.8000 123.063 1 29 1001 12.1076 123.118 TD 30 1000 2 269
1996090N04150 1996 27 WP MM ANN 1996-04-08 06:00:00 TS 12.0692 123.054 1002 tokyo main 15 15 OOOO__________ jtwc_wp WP021996 12.4000 123.100 30 -1 12.0000 123.000 2 1002 0 0 0 11.8000 123.100 1 29 1002 12.1000 122.900 TD 30 1000 1 284
1996090N04150 1996 27 WP MM ANN 1996-04-08 09:00:00 TS 12.1050 123.012 main 24 24 PPP___________ WP021996 12.5300 122.950 30 -1 11.9850 122.985 2 1003 0 0 11.8000 123.100 1 29 1002 TD 1 305
1996090N04150 1996 27 WP MM ANN 1996-04-08 12:00:00 TS 12.1333 122.967 1004 tokyo main 24 24 OOO___________ jtwc_wp WP021996 12.6000 122.800 30 -1 12.0000 123.000 2 1004 0 0 0 11.8000 123.100 1 29 1002 1 270
1996090N04150 1996 27 WP MM ANN 1996-04-08 15:00:00 TS 12.1050 122.927 main 34 34 PPP___________ WP021996 12.5375 122.642 30 -1 11.9775 123.007 2 1004 0 0 11.8000 123.130 1 29 1002 1 236
1996090N04150 1996 27 WP MM ANN 1996-04-08 18:00:00 TS 12.0667 122.867 1004 tokyo main 34 34 OOO___________ jtwc_wp WP021996 12.4000 122.500 30 -1 12.0000 123.000 2 1004 0 0 0 11.8000 123.100 1 29 1002 2 259
1996090N04150 1996 27 WP MM ANN 1996-04-08 21:00:00 TS 12.0742 122.770 main 44 44 PPP___________ WP021996 12.2575 122.393 30 -1 12.1650 122.980 2 1005 0 0 11.8000 122.938 1 29 1002 2 270
1996090N04150 1996 27 WP MM ANN 1996-04-09 00:00:00 TS 12.0667 122.633 1006 tokyo main 49 35 OOO___________ jtwc_wp WP021996 12.1000 122.300 30 -1 12.3000 122.900 2 1006 0 0 0 11.8000 122.700 1 29 1002 3 253
1996090N04150 1996 27 WP MM ANN 1996-04-09 03:00:00 TS 11.9883 122.477 main 35 15 PPP___________ WP021996 11.9425 122.200 27 -1 12.2225 122.745 2 1005 0 0 11.7999 122.487 1 24 1003 4 245
1996090N04150 1996 27 WP MM ANN 1996-04-09 06:00:00 TS 11.9000 122.267 1004 tokyo main 15 11 OOO___________ jtwc_wp WP021996 11.8000 122.100 25 -1 12.1000 122.500 2 1004 0 0 0 11.8000 122.200 0 19 1004 5 254
1996090N04150 1996 27 WP MM ANN 1996-04-09 09:00:00 TS 11.8541 121.997 main 11 0 PPP___________ WP021996 11.6925 122.000 25 -1 12.0848 122.218 2 1004 0 0 11.7851 121.772 0 19 1004 6 264
1996090N04150 1996 27 WP MM ANN 1996-04-09 12:00:00 TS 11.8333 121.667 1004 tokyo main 10 10 OOO___________ jtwc_wp WP021996 11.6000 121.900 25 -1 12.1000 121.800 2 1004 0 0 0 11.8000 121.300 0 19 1004 7 267
1996090N04150 1996 27 WP MM ANN 1996-04-09 15:00:00 TS 11.8234 121.283 main 46 44 PPP___________ WP021996 11.4925 121.800 22 -1 12.0928 121.157 2 1004 0 0 11.8849 120.893 0 19 1004 8 270
1996090N04150 1996 27 WP MM ANN 1996-04-09 18:00:00 TS 11.8333 120.900 1004 tokyo main 49 49 OOO___________ jtwc_wp WP021996 11.4000 121.700 20 -1 12.1000 120.500 2 1004 0 0 0 12.0000 120.500 0 19 1004 7 272
1996090N04150 1996 27 WP MM ANN 1996-04-09 21:00:00 TS 11.8541 120.565 main 63 63 PPP___________ WP021996 11.3350 121.600 20 -1 12.1349 120.010 2 1004 0 0 12.0925 120.085 0 19 1004 5 271
1996090N04150 1996 27 WP MM ANN 1996-04-10 00:00:00 TS 11.8400 120.420 1004 tokyo main 88 88 OOO___________ jtwc_wp WP021996 11.3000 121.500 20 -1 12.2000 119.700 2 1004 0 0 0 12.2000 119.700 0 19 1004 1 248
1996090N04150 1996 27 WP MM ANN 1996-04-10 03:00:00 TS 11.8044 120.443 main 88 78 PPP___________ WP021996 11.2925 121.400 20 -1 12.2925 119.592 2 1004 0 0 12.3400 119.380 0 19 1004 3 125
1996090N04150 1996 27 WP MM ANN 1996-04-10 06:00:00 TS 11.6833 120.650 1004 tokyo main 70 70 OOO___________ jtwc_wp WP021996 11.3000 121.300 20 -1 12.4000 119.600 2 1004 0 0 0 12.5000 119.100 0 19 1004 9 125
1996090N04150 1996 27 WP MM ANN 1996-04-10 09:00:00 NR 11.2925 121.200 main 86 86 P_____________ WP021996 11.2925 121.200 17 -1 2 0 0 0 6 131
1996090N04150 1996 27 WP MM ANN 1996-04-10 12:00:00 NR 11.3000 121.100 main 94 94 O_____________ jtwc_wp WP021996 11.3000 121.100 15 -1 2 284
1996090N04150 1996 27 WP MM ANN 1996-04-10 15:00:00 NR 11.3425 121.000 main 101 90 P_____________ WP021996 11.3425 121.000 15 -1 2 297
1996090N04150 1996 27 WP MM ANN 1996-04-10 18:00:00 NR 11.4000 120.900 main 92 92 O_____________ jtwc_wp WP021996 11.4000 120.900 15 -1 2 297
1996090N04150 1996 27 WP MM ANN 1996-04-10 21:00:00 NR 11.4425 120.800 main 95 84 P_____________ WP021996 11.4425 120.800 15 -1 2 297
1996090N04150 1996 27 WP MM ANN 1996-04-11 00:00:00 NR 11.5000 120.700 main 89 86 O_____________ jtwc_wp WP021996 11.5000 120.700 15 -1 2 307
1996090N04150 1996 27 WP MM ANN 1996-04-11 03:00:00 NR 11.5925 120.600 main 86 86 P_____________ WP021996 11.5925 120.600 15 -1 3 315
1996090N04150 1996 27 WP MM ANN 1996-04-11 06:00:00 NR 11.7000 120.500 main 86 79 O_____________ jtwc_wp WP021996 11.7000 120.500 15 -1 3 316
1996090N04150 1996 27 WP MM ANN 1996-04-11 09:00:00 NR 11.8000 120.400 main 88 88 P_____________ WP021996 11.8000 120.400 15 -1 3 316
1996090N04150 1996 27 WP MM ANN 1996-04-11 12:00:00 NR 11.9000 120.300 main 93 88 O_____________ jtwc_wp WP021996 11.9000 120.300 15 -1 3 316
1996090N04150 1996 27 WP MM ANN 1996-04-11 15:00:00 NR 12.0000 120.200 main 97 93 P_____________ WP021996 12.0000 120.200 15 -1 3 316
1996090N04150 1996 27 WP MM ANN 1996-04-11 18:00:00 NR 12.1000 120.100 main 101 O_____________ jtwc_wp WP021996 12.1000 120.100 15 -1 3 317

Digital Typhoon Data and Search

About IBTrACS Database

This database is a web-friendly format of International Best Track Archive for Climate Stewardship (IBTrACS), a global best track data archive curated by NOAA dating back to 1842.

Updated: 2021-11-26